sensor_id;sensor_type;location;lat;lon;timestamp;P1;durP1;ratioP1;P2;durP2;ratioP2
75550;SDS011;65071;53.082;18.218;2023-04-16T00:00:18;4.20;;;3.40;;
75550;SDS011;65071;53.082;18.218;2023-04-16T00:03:04;5.00;;;3.40;;
75550;SDS011;65071;53.082;18.218;2023-04-16T00:05:31;4.30;;;2.60;;
75550;SDS011;65071;53.082;18.218;2023-04-16T00:07:58;4.90;;;3.70;;
75550;SDS011;65071;53.082;18.218;2023-04-16T00:10:24;4.80;;;3.80;;
75550;SDS011;65071;53.082;18.218;2023-04-16T00:12:51;5.50;;;3.90;;
75550;SDS011;65071;53.082;18.218;2023-04-16T00:15:17;3.60;;;3.20;;
75550;SDS011;65071;53.082;18.218;2023-04-16T00:17:44;6.50;;;3.40;;
75550;SDS011;65071;53.082;18.218;2023-04-16T00:20:10;2.70;;;2.20;;
75550;SDS011;65071;53.082;18.218;2023-04-16T00:22:37;5.20;;;3.00;;
75550;SDS011;65071;53.082;18.218;2023-04-16T00:25:04;4.70;;;3.60;;
75550;SDS011;65071;53.082;18.218;2023-04-16T00:27:31;4.50;;;3.50;;
75550;SDS011;65071;53.082;18.218;2023-04-16T00:29:58;4.90;;;3.20;;
75550;SDS011;65071;53.082;18.218;2023-04-16T00:32:24;3.20;;;2.50;;
75550;SDS011;65071;53.082;18.218;2023-04-16T00:34:51;5.20;;;3.60;;
75550;SDS011;65071;53.082;18.218;2023-04-16T00:37:18;3.50;;;2.80;;
75550;SDS011;65071;53.082;18.218;2023-04-16T00:39:44;3.80;;;3.30;;
75550;SDS011;65071;53.082;18.218;2023-04-16T00:42:11;4.30;;;3.50;;
75550;SDS011;65071;53.082;18.218;2023-04-16T00:44:37;4.30;;;3.70;;
75550;SDS011;65071;53.082;18.218;2023-04-16T00:47:04;5.10;;;3.30;;
75550;SDS011;65071;53.082;18.218;2023-04-16T00:49:32;5.40;;;3.90;;
75550;SDS011;65071;53.082;18.218;2023-04-16T00:51:59;5.10;;;3.10;;
75550;SDS011;65071;53.082;18.218;2023-04-16T00:54:28;4.50;;;3.70;;
75550;SDS011;65071;53.082;18.218;2023-04-16T00:56:56;3.70;;;2.40;;
75550;SDS011;65071;53.082;18.218;2023-04-16T00:59:24;5.80;;;4.40;;
75550;SDS011;65071;53.082;18.218;2023-04-16T01:01:51;7.30;;;5.40;;
75550;SDS011;65071;53.082;18.218;2023-04-16T01:04:18;6.30;;;4.80;;
75550;SDS011;65071;53.082;18.218;2023-04-16T01:06:45;6.10;;;4.30;;
75550;SDS011;65071;53.082;18.218;2023-04-16T01:09:11;5.50;;;4.00;;
75550;SDS011;65071;53.082;18.218;2023-04-16T01:11:38;6.30;;;4.40;;
75550;SDS011;65071;53.082;18.218;2023-04-16T01:14:05;6.00;;;4.10;;
75550;SDS011;65071;53.082;18.218;2023-04-16T01:16:32;4.90;;;3.70;;
75550;SDS011;65071;53.082;18.218;2023-04-16T01:18:58;5.90;;;4.30;;
75550;SDS011;65071;53.082;18.218;2023-04-16T01:21:25;5.00;;;4.10;;
75550;SDS011;65071;53.082;18.218;2023-04-16T01:23:51;3.20;;;2.60;;
75550;SDS011;65071;53.082;18.218;2023-04-16T01:26:18;4.40;;;3.60;;
75550;SDS011;65071;53.082;18.218;2023-04-16T01:28:44;6.00;;;4.60;;
75550;SDS011;65071;53.082;18.218;2023-04-16T01:31:11;6.20;;;4.70;;
75550;SDS011;65071;53.082;18.218;2023-04-16T01:33:47;5.40;;;4.10;;
75550;SDS011;65071;53.082;18.218;2023-04-16T01:36:13;3.30;;;2.80;;
75550;SDS011;65071;53.082;18.218;2023-04-16T01:38:40;4.10;;;3.10;;
75550;SDS011;65071;53.082;18.218;2023-04-16T01:41:06;5.70;;;4.50;;
75550;SDS011;65071;53.082;18.218;2023-04-16T01:43:34;7.70;;;4.90;;
75550;SDS011;65071;53.082;18.218;2023-04-16T01:46:10;5.30;;;4.10;;
75550;SDS011;65071;53.082;18.218;2023-04-16T01:48:43;6.80;;;4.40;;
75550;SDS011;65071;53.082;18.218;2023-04-16T01:51:09;6.00;;;4.40;;
75550;SDS011;65071;53.082;18.218;2023-04-16T01:53:36;5.50;;;3.80;;
75550;SDS011;65071;53.082;18.218;2023-04-16T01:56:03;4.00;;;2.10;;
75550;SDS011;65071;53.082;18.218;2023-04-16T01:58:31;5.00;;;3.70;;
75550;SDS011;65071;53.082;18.218;2023-04-16T02:00:59;4.80;;;3.10;;
75550;SDS011;65071;53.082;18.218;2023-04-16T02:03:26;6.50;;;4.50;;
75550;SDS011;65071;53.082;18.218;2023-04-16T02:05:53;5.80;;;4.30;;
75550;SDS011;65071;53.082;18.218;2023-04-16T02:08:19;6.30;;;4.10;;
75550;SDS011;65071;53.082;18.218;2023-04-16T02:10:48;4.10;;;3.40;;
75550;SDS011;65071;53.082;18.218;2023-04-16T02:13:15;6.00;;;4.10;;
75550;SDS011;65071;53.082;18.218;2023-04-16T02:15:45;5.30;;;3.30;;
75550;SDS011;65071;53.082;18.218;2023-04-16T02:18:12;5.40;;;4.10;;
75550;SDS011;65071;53.082;18.218;2023-04-16T02:20:40;5.00;;;3.70;;
75550;SDS011;65071;53.082;18.218;2023-04-16T02:23:08;6.00;;;4.10;;
75550;SDS011;65071;53.082;18.218;2023-04-16T02:25:43;5.80;;;4.20;;
75550;SDS011;65071;53.082;18.218;2023-04-16T02:28:12;3.80;;;3.30;;
75550;SDS011;65071;53.082;18.218;2023-04-16T02:30:40;5.80;;;4.40;;
75550;SDS011;65071;53.082;18.218;2023-04-16T02:33:08;5.50;;;4.40;;
75550;SDS011;65071;53.082;18.218;2023-04-16T02:35:38;6.50;;;4.90;;
75550;SDS011;65071;53.082;18.218;2023-04-16T02:38:06;4.10;;;3.10;;
75550;SDS011;65071;53.082;18.218;2023-04-16T02:40:34;5.10;;;2.90;;
75550;SDS011;65071;53.082;18.218;2023-04-16T02:43:01;4.40;;;3.20;;
75550;SDS011;65071;53.082;18.218;2023-04-16T02:45:28;5.20;;;3.60;;
75550;SDS011;65071;53.082;18.218;2023-04-16T02:47:56;7.10;;;5.20;;
75550;SDS011;65071;53.082;18.218;2023-04-16T02:50:23;7.40;;;4.50;;
75550;SDS011;65071;53.082;18.218;2023-04-16T02:52:49;6.50;;;4.40;;
75550;SDS011;65071;53.082;18.218;2023-04-16T02:55:17;6.00;;;5.00;;
75550;SDS011;65071;53.082;18.218;2023-04-16T02:57:43;5.60;;;4.40;;
75550;SDS011;65071;53.082;18.218;2023-04-16T03:00:10;5.30;;;3.60;;
75550;SDS011;65071;53.082;18.218;2023-04-16T03:02:37;4.70;;;3.80;;
75550;SDS011;65071;53.082;18.218;2023-04-16T03:05:03;5.90;;;4.00;;
75550;SDS011;65071;53.082;18.218;2023-04-16T03:07:30;5.60;;;4.50;;
75550;SDS011;65071;53.082;18.218;2023-04-16T03:09:57;4.90;;;3.40;;
75550;SDS011;65071;53.082;18.218;2023-04-16T03:12:23;6.70;;;4.70;;
75550;SDS011;65071;53.082;18.218;2023-04-16T03:14:50;7.30;;;4.90;;
75550;SDS011;65071;53.082;18.218;2023-04-16T03:17:20;5.60;;;4.30;;
75550;SDS011;65071;53.082;18.218;2023-04-16T03:19:46;6.90;;;5.40;;
75550;SDS011;65071;53.082;18.218;2023-04-16T03:22:13;7.10;;;5.50;;
75550;SDS011;65071;53.082;18.218;2023-04-16T03:24:39;7.40;;;5.30;;
75550;SDS011;65071;53.082;18.218;2023-04-16T03:27:06;6.80;;;5.10;;
75550;SDS011;65071;53.082;18.218;2023-04-16T03:29:35;5.90;;;3.80;;
75550;SDS011;65071;53.082;18.218;2023-04-16T03:34:30;6.30;;;4.20;;
75550;SDS011;65071;53.082;18.218;2023-04-16T03:36:56;8.60;;;5.50;;
75550;SDS011;65071;53.082;18.218;2023-04-16T03:39:23;5.20;;;3.60;;
75550;SDS011;65071;53.082;18.218;2023-04-16T03:41:50;7.60;;;4.40;;
75550;SDS011;65071;53.082;18.218;2023-04-16T03:46:46;6.50;;;4.30;;
75550;SDS011;65071;53.082;18.218;2023-04-16T03:49:13;8.10;;;5.40;;
75550;SDS011;65071;53.082;18.218;2023-04-16T03:51:40;7.90;;;6.20;;
75550;SDS011;65071;53.082;18.218;2023-04-16T03:54:07;8.80;;;5.10;;
75550;SDS011;65071;53.082;18.218;2023-04-16T03:56:33;6.60;;;4.40;;
75550;SDS011;65071;53.082;18.218;2023-04-16T03:59:00;9.50;;;6.60;;
75550;SDS011;65071;53.082;18.218;2023-04-16T04:01:27;7.40;;;5.80;;
75550;SDS011;65071;53.082;18.218;2023-04-16T04:03:53;5.00;;;3.40;;
75550;SDS011;65071;53.082;18.218;2023-04-16T04:06:20;7.80;;;5.60;;
75550;SDS011;65071;53.082;18.218;2023-04-16T04:08:47;8.80;;;6.40;;
75550;SDS011;65071;53.082;18.218;2023-04-16T04:11:14;8.60;;;6.00;;
75550;SDS011;65071;53.082;18.218;2023-04-16T04:13:41;8.20;;;5.70;;
75550;SDS011;65071;53.082;18.218;2023-04-16T04:16:08;8.50;;;5.20;;
75550;SDS011;65071;53.082;18.218;2023-04-16T04:18:34;6.60;;;5.30;;
75550;SDS011;65071;53.082;18.218;2023-04-16T04:21:07;6.90;;;4.20;;
75550;SDS011;65071;53.082;18.218;2023-04-16T04:23:35;9.30;;;6.00;;
75550;SDS011;65071;53.082;18.218;2023-04-16T04:26:02;6.80;;;4.70;;
75550;SDS011;65071;53.082;18.218;2023-04-16T04:28:31;6.40;;;4.80;;
75550;SDS011;65071;53.082;18.218;2023-04-16T04:30:58;7.20;;;4.60;;
75550;SDS011;65071;53.082;18.218;2023-04-16T04:33:25;7.10;;;4.40;;
75550;SDS011;65071;53.082;18.218;2023-04-16T04:35:53;6.00;;;4.20;;
75550;SDS011;65071;53.082;18.218;2023-04-16T04:38:20;8.20;;;5.00;;
75550;SDS011;65071;53.082;18.218;2023-04-16T04:43:18;6.80;;;4.60;;
75550;SDS011;65071;53.082;18.218;2023-04-16T04:45:45;5.20;;;3.40;;
75550;SDS011;65071;53.082;18.218;2023-04-16T04:48:14;7.80;;;5.10;;
75550;SDS011;65071;53.082;18.218;2023-04-16T04:50:41;7.50;;;4.40;;
75550;SDS011;65071;53.082;18.218;2023-04-16T04:53:08;8.70;;;5.60;;
75550;SDS011;65071;53.082;18.218;2023-04-16T04:55:39;9.40;;;6.80;;
75550;SDS011;65071;53.082;18.218;2023-04-16T04:58:06;9.00;;;5.50;;
75550;SDS011;65071;53.082;18.218;2023-04-16T05:00:34;6.00;;;3.60;;
75550;SDS011;65071;53.082;18.218;2023-04-16T05:03:04;8.50;;;5.70;;
75550;SDS011;65071;53.082;18.218;2023-04-16T05:05:34;8.80;;;5.50;;
75550;SDS011;65071;53.082;18.218;2023-04-16T05:08:01;13.10;;;6.80;;
75550;SDS011;65071;53.082;18.218;2023-04-16T05:10:27;6.40;;;4.00;;
75550;SDS011;65071;53.082;18.218;2023-04-16T05:12:54;6.10;;;4.60;;
75550;SDS011;65071;53.082;18.218;2023-04-16T05:15:20;9.10;;;6.10;;
75550;SDS011;65071;53.082;18.218;2023-04-16T05:17:47;10.20;;;7.10;;
75550;SDS011;65071;53.082;18.218;2023-04-16T05:20:14;8.70;;;5.20;;
75550;SDS011;65071;53.082;18.218;2023-04-16T05:22:40;7.30;;;4.60;;
75550;SDS011;65071;53.082;18.218;2023-04-16T05:25:07;8.50;;;5.50;;
75550;SDS011;65071;53.082;18.218;2023-04-16T05:27:34;10.10;;;6.60;;
75550;SDS011;65071;53.082;18.218;2023-04-16T05:30:00;9.50;;;6.60;;
75550;SDS011;65071;53.082;18.218;2023-04-16T05:32:27;10.60;;;6.90;;
75550;SDS011;65071;53.082;18.218;2023-04-16T05:34:54;7.60;;;4.90;;
75550;SDS011;65071;53.082;18.218;2023-04-16T05:37:20;10.10;;;5.20;;
75550;SDS011;65071;53.082;18.218;2023-04-16T05:39:47;8.30;;;4.70;;
75550;SDS011;65071;53.082;18.218;2023-04-16T05:42:14;6.40;;;4.10;;
75550;SDS011;65071;53.082;18.218;2023-04-16T05:44:40;8.70;;;5.10;;
75550;SDS011;65071;53.082;18.218;2023-04-16T05:47:07;6.70;;;4.40;;
75550;SDS011;65071;53.082;18.218;2023-04-16T05:49:34;8.10;;;5.20;;
75550;SDS011;65071;53.082;18.218;2023-04-16T05:52:04;10.60;;;6.80;;
75550;SDS011;65071;53.082;18.218;2023-04-16T05:54:31;10.70;;;6.30;;
75550;SDS011;65071;53.082;18.218;2023-04-16T05:56:59;11.00;;;7.40;;
75550;SDS011;65071;53.082;18.218;2023-04-16T05:59:27;9.80;;;7.30;;
75550;SDS011;65071;53.082;18.218;2023-04-16T06:01:54;7.20;;;4.30;;
75550;SDS011;65071;53.082;18.218;2023-04-16T06:04:21;9.50;;;5.90;;
75550;SDS011;65071;53.082;18.218;2023-04-16T06:06:47;11.10;;;7.20;;
75550;SDS011;65071;53.082;18.218;2023-04-16T06:09:14;9.70;;;6.70;;
75550;SDS011;65071;53.082;18.218;2023-04-16T06:11:40;7.40;;;5.30;;
75550;SDS011;65071;53.082;18.218;2023-04-16T06:14:07;9.80;;;6.20;;
75550;SDS011;65071;53.082;18.218;2023-04-16T06:16:33;12.50;;;7.90;;
75550;SDS011;65071;53.082;18.218;2023-04-16T06:19:00;7.60;;;4.90;;
75550;SDS011;65071;53.082;18.218;2023-04-16T06:21:27;8.50;;;5.60;;
75550;SDS011;65071;53.082;18.218;2023-04-16T06:23:54;9.70;;;6.80;;
75550;SDS011;65071;53.082;18.218;2023-04-16T06:26:21;9.60;;;6.60;;
75550;SDS011;65071;53.082;18.218;2023-04-16T06:28:47;7.50;;;5.50;;
75550;SDS011;65071;53.082;18.218;2023-04-16T06:31:14;8.60;;;5.40;;
75550;SDS011;65071;53.082;18.218;2023-04-16T06:33:41;9.70;;;6.10;;
75550;SDS011;65071;53.082;18.218;2023-04-16T06:36:08;6.50;;;4.80;;
75550;SDS011;65071;53.082;18.218;2023-04-16T06:38:34;9.10;;;6.00;;
75550;SDS011;65071;53.082;18.218;2023-04-16T06:41:02;8.10;;;4.80;;
75550;SDS011;65071;53.082;18.218;2023-04-16T06:43:29;6.40;;;4.20;;
75550;SDS011;65071;53.082;18.218;2023-04-16T06:45:56;7.30;;;4.60;;
75550;SDS011;65071;53.082;18.218;2023-04-16T06:48:23;8.90;;;5.70;;
75550;SDS011;65071;53.082;18.218;2023-04-16T06:50:50;6.90;;;4.40;;
75550;SDS011;65071;53.082;18.218;2023-04-16T06:53:16;7.40;;;5.10;;
75550;SDS011;65071;53.082;18.218;2023-04-16T06:55:43;7.30;;;4.70;;
75550;SDS011;65071;53.082;18.218;2023-04-16T06:58:09;7.20;;;4.80;;
75550;SDS011;65071;53.082;18.218;2023-04-16T07:00:36;5.70;;;3.80;;
75550;SDS011;65071;53.082;18.218;2023-04-16T07:03:02;10.70;;;5.40;;
75550;SDS011;65071;53.082;18.218;2023-04-16T07:05:29;6.50;;;5.00;;
75550;SDS011;65071;53.082;18.218;2023-04-16T07:07:57;7.00;;;4.80;;
75550;SDS011;65071;53.082;18.218;2023-04-16T07:10:24;7.30;;;4.90;;
75550;SDS011;65071;53.082;18.218;2023-04-16T07:12:51;5.10;;;3.80;;
75550;SDS011;65071;53.082;18.218;2023-04-16T07:15:18;9.90;;;6.40;;
75550;SDS011;65071;53.082;18.218;2023-04-16T07:17:44;9.80;;;6.10;;
75550;SDS011;65071;53.082;18.218;2023-04-16T07:20:11;9.70;;;5.90;;
75550;SDS011;65071;53.082;18.218;2023-04-16T07:22:38;10.30;;;6.70;;
75550;SDS011;65071;53.082;18.218;2023-04-16T07:25:05;10.40;;;6.20;;
75550;SDS011;65071;53.082;18.218;2023-04-16T07:27:31;8.40;;;5.80;;
75550;SDS011;65071;53.082;18.218;2023-04-16T07:29:58;7.70;;;5.30;;
75550;SDS011;65071;53.082;18.218;2023-04-16T07:32:25;7.10;;;4.30;;
75550;SDS011;65071;53.082;18.218;2023-04-16T07:34:51;8.70;;;4.60;;
75550;SDS011;65071;53.082;18.218;2023-04-16T07:37:18;9.50;;;5.00;;
75550;SDS011;65071;53.082;18.218;2023-04-16T07:39:44;9.80;;;4.40;;
75550;SDS011;65071;53.082;18.218;2023-04-16T07:42:11;7.10;;;4.00;;
75550;SDS011;65071;53.082;18.218;2023-04-16T07:44:38;8.70;;;5.40;;
75550;SDS011;65071;53.082;18.218;2023-04-16T07:47:04;7.40;;;4.80;;
75550;SDS011;65071;53.082;18.218;2023-04-16T07:49:31;5.70;;;3.20;;
75550;SDS011;65071;53.082;18.218;2023-04-16T07:51:57;8.10;;;4.50;;
75550;SDS011;65071;53.082;18.218;2023-04-16T07:54:24;6.90;;;4.00;;
75550;SDS011;65071;53.082;18.218;2023-04-16T07:56:51;6.60;;;3.90;;
75550;SDS011;65071;53.082;18.218;2023-04-16T07:59:17;6.10;;;3.90;;
75550;SDS011;65071;53.082;18.218;2023-04-16T08:01:44;5.90;;;3.30;;
75550;SDS011;65071;53.082;18.218;2023-04-16T08:04:10;5.40;;;3.60;;
75550;SDS011;65071;53.082;18.218;2023-04-16T08:06:37;6.50;;;3.80;;
75550;SDS011;65071;53.082;18.218;2023-04-16T08:09:04;5.30;;;3.40;;
75550;SDS011;65071;53.082;18.218;2023-04-16T08:11:30;6.10;;;3.60;;
75550;SDS011;65071;53.082;18.218;2023-04-16T08:13:57;7.30;;;4.90;;
75550;SDS011;65071;53.082;18.218;2023-04-16T08:16:24;4.30;;;2.70;;
75550;SDS011;65071;53.082;18.218;2023-04-16T08:18:50;8.00;;;4.70;;
75550;SDS011;65071;53.082;18.218;2023-04-16T08:21:17;6.70;;;4.80;;
75550;SDS011;65071;53.082;18.218;2023-04-16T08:23:44;9.20;;;5.30;;
75550;SDS011;65071;53.082;18.218;2023-04-16T08:26:10;9.60;;;5.10;;
75550;SDS011;65071;53.082;18.218;2023-04-16T08:28:37;8.10;;;4.90;;
75550;SDS011;65071;53.082;18.218;2023-04-16T08:31:03;6.80;;;4.50;;
75550;SDS011;65071;53.082;18.218;2023-04-16T08:33:30;7.10;;;5.10;;
75550;SDS011;65071;53.082;18.218;2023-04-16T08:35:56;7.80;;;4.30;;
75550;SDS011;65071;53.082;18.218;2023-04-16T08:38:23;8.30;;;5.50;;
75550;SDS011;65071;53.082;18.218;2023-04-16T08:40:49;8.90;;;5.50;;
75550;SDS011;65071;53.082;18.218;2023-04-16T08:43:16;9.60;;;5.50;;
75550;SDS011;65071;53.082;18.218;2023-04-16T08:45:44;8.70;;;4.80;;
75550;SDS011;65071;53.082;18.218;2023-04-16T08:48:12;8.80;;;3.90;;
75550;SDS011;65071;53.082;18.218;2023-04-16T08:50:40;4.40;;;2.90;;
75550;SDS011;65071;53.082;18.218;2023-04-16T08:53:09;6.80;;;4.20;;
75550;SDS011;65071;53.082;18.218;2023-04-16T08:55:45;6.00;;;3.60;;
75550;SDS011;65071;53.082;18.218;2023-04-16T08:58:18;7.10;;;4.60;;
75550;SDS011;65071;53.082;18.218;2023-04-16T09:00:48;6.60;;;3.90;;
75550;SDS011;65071;53.082;18.218;2023-04-16T09:03:15;7.40;;;4.40;;
75550;SDS011;65071;53.082;18.218;2023-04-16T09:08:11;5.60;;;2.90;;
75550;SDS011;65071;53.082;18.218;2023-04-16T09:10:38;7.40;;;4.40;;
75550;SDS011;65071;53.082;18.218;2023-04-16T09:13:05;8.50;;;4.60;;
75550;SDS011;65071;53.082;18.218;2023-04-16T09:15:34;9.50;;;4.70;;
75550;SDS011;65071;53.082;18.218;2023-04-16T09:18:01;7.90;;;5.00;;
75550;SDS011;65071;53.082;18.218;2023-04-16T09:20:28;7.50;;;4.50;;
75550;SDS011;65071;53.082;18.218;2023-04-16T09:22:54;5.80;;;3.50;;
75550;SDS011;65071;53.082;18.218;2023-04-16T09:25:22;6.00;;;4.00;;
75550;SDS011;65071;53.082;18.218;2023-04-16T09:27:50;6.70;;;4.60;;
75550;SDS011;65071;53.082;18.218;2023-04-16T09:30:17;7.20;;;4.40;;
75550;SDS011;65071;53.082;18.218;2023-04-16T09:32:48;7.90;;;4.30;;
75550;SDS011;65071;53.082;18.218;2023-04-16T09:35:19;6.60;;;4.50;;
75550;SDS011;65071;53.082;18.218;2023-04-16T09:37:53;4.90;;;3.50;;
75550;SDS011;65071;53.082;18.218;2023-04-16T09:42:55;6.00;;;4.20;;
75550;SDS011;65071;53.082;18.218;2023-04-16T09:45:22;4.90;;;2.90;;
75550;SDS011;65071;53.082;18.218;2023-04-16T09:47:49;4.30;;;3.80;;
75550;SDS011;65071;53.082;18.218;2023-04-16T09:50:17;4.60;;;3.40;;
75550;SDS011;65071;53.082;18.218;2023-04-16T09:52:46;4.50;;;3.30;;
75550;SDS011;65071;53.082;18.218;2023-04-16T09:55:21;3.50;;;2.60;;
75550;SDS011;65071;53.082;18.218;2023-04-16T09:57:48;3.50;;;2.10;;
75550;SDS011;65071;53.082;18.218;2023-04-16T10:00:24;6.60;;;4.10;;
75550;SDS011;65071;53.082;18.218;2023-04-16T10:03:01;5.40;;;3.60;;
75550;SDS011;65071;53.082;18.218;2023-04-16T10:05:29;5.70;;;3.70;;
75550;SDS011;65071;53.082;18.218;2023-04-16T10:07:58;7.70;;;5.00;;
75550;SDS011;65071;53.082;18.218;2023-04-16T10:10:26;6.60;;;4.40;;
75550;SDS011;65071;53.082;18.218;2023-04-16T10:12:56;4.10;;;2.20;;
75550;SDS011;65071;53.082;18.218;2023-04-16T10:15:23;6.00;;;4.40;;
75550;SDS011;65071;53.082;18.218;2023-04-16T10:17:50;5.70;;;3.80;;
75550;SDS011;65071;53.082;18.218;2023-04-16T10:20:19;5.40;;;3.40;;
75550;SDS011;65071;53.082;18.218;2023-04-16T10:22:46;6.10;;;4.90;;
75550;SDS011;65071;53.082;18.218;2023-04-16T10:25:12;5.80;;;4.30;;
75550;SDS011;65071;53.082;18.218;2023-04-16T10:27:39;4.60;;;3.10;;
75550;SDS011;65071;53.082;18.218;2023-04-16T10:30:07;6.40;;;3.60;;
75550;SDS011;65071;53.082;18.218;2023-04-16T10:32:36;9.30;;;4.70;;
75550;SDS011;65071;53.082;18.218;2023-04-16T10:35:03;4.50;;;2.80;;
75550;SDS011;65071;53.082;18.218;2023-04-16T10:37:31;6.00;;;3.60;;
75550;SDS011;65071;53.082;18.218;2023-04-16T10:39:57;5.40;;;3.60;;
75550;SDS011;65071;53.082;18.218;2023-04-16T10:42:25;6.00;;;4.00;;
75550;SDS011;65071;53.082;18.218;2023-04-16T10:44:52;6.40;;;4.40;;
75550;SDS011;65071;53.082;18.218;2023-04-16T10:47:19;9.40;;;4.50;;
75550;SDS011;65071;53.082;18.218;2023-04-16T10:49:50;6.90;;;4.10;;
75550;SDS011;65071;53.082;18.218;2023-04-16T10:52:17;6.50;;;4.20;;
75550;SDS011;65071;53.082;18.218;2023-04-16T10:54:44;8.20;;;4.50;;
75550;SDS011;65071;53.082;18.218;2023-04-16T10:57:16;6.60;;;4.50;;
75550;SDS011;65071;53.082;18.218;2023-04-16T10:59:44;8.60;;;4.70;;
75550;SDS011;65071;53.082;18.218;2023-04-16T11:02:17;7.10;;;4.00;;
75550;SDS011;65071;53.082;18.218;2023-04-16T11:04:45;7.40;;;4.60;;
75550;SDS011;65071;53.082;18.218;2023-04-16T11:07:17;4.90;;;3.20;;
75550;SDS011;65071;53.082;18.218;2023-04-16T11:12:24;6.20;;;3.80;;
75550;SDS011;65071;53.082;18.218;2023-04-16T11:14:59;5.00;;;3.60;;
75550;SDS011;65071;53.082;18.218;2023-04-16T11:17:49;8.00;;;4.90;;
75550;SDS011;65071;53.082;18.218;2023-04-16T11:20:20;7.20;;;4.70;;
75550;SDS011;65071;53.082;18.218;2023-04-16T11:22:48;5.80;;;3.60;;
75550;SDS011;65071;53.082;18.218;2023-04-16T11:25:23;7.60;;;4.80;;
75550;SDS011;65071;53.082;18.218;2023-04-16T11:27:51;9.20;;;4.70;;
75550;SDS011;65071;53.082;18.218;2023-04-16T11:30:26;7.00;;;3.90;;
75550;SDS011;65071;53.082;18.218;2023-04-16T11:32:54;10.60;;;3.70;;
75550;SDS011;65071;53.082;18.218;2023-04-16T11:35:21;5.60;;;3.60;;
75550;SDS011;65071;53.082;18.218;2023-04-16T11:37:48;9.60;;;5.10;;
75550;SDS011;65071;53.082;18.218;2023-04-16T11:40:14;11.60;;;6.00;;
75550;SDS011;65071;53.082;18.218;2023-04-16T11:42:41;9.60;;;5.90;;
75550;SDS011;65071;53.082;18.218;2023-04-16T11:45:09;8.60;;;4.60;;
75550;SDS011;65071;53.082;18.218;2023-04-16T11:47:49;10.40;;;6.30;;
75550;SDS011;65071;53.082;18.218;2023-04-16T11:50:18;11.10;;;7.00;;
75550;SDS011;65071;53.082;18.218;2023-04-16T11:52:46;7.60;;;4.80;;
75550;SDS011;65071;53.082;18.218;2023-04-16T11:55:13;10.60;;;5.10;;
75550;SDS011;65071;53.082;18.218;2023-04-16T11:57:39;11.00;;;6.60;;
75550;SDS011;65071;53.082;18.218;2023-04-16T12:00:06;4.90;;;3.00;;
75550;SDS011;65071;53.082;18.218;2023-04-16T12:02:45;8.20;;;4.90;;
75550;SDS011;65071;53.082;18.218;2023-04-16T12:07:56;7.70;;;4.80;;
75550;SDS011;65071;53.082;18.218;2023-04-16T12:10:24;8.40;;;4.90;;
75550;SDS011;65071;53.082;18.218;2023-04-16T12:12:52;8.70;;;5.30;;
75550;SDS011;65071;53.082;18.218;2023-04-16T12:15:18;5.50;;;3.60;;
75550;SDS011;65071;53.082;18.218;2023-04-16T12:17:45;9.00;;;5.10;;
75550;SDS011;65071;53.082;18.218;2023-04-16T12:20:13;8.50;;;4.60;;
75550;SDS011;65071;53.082;18.218;2023-04-16T12:22:43;5.20;;;2.80;;
75550;SDS011;65071;53.082;18.218;2023-04-16T12:25:12;7.60;;;4.00;;
75550;SDS011;65071;53.082;18.218;2023-04-16T12:30:18;6.00;;;3.80;;
75550;SDS011;65071;53.082;18.218;2023-04-16T12:32:46;6.50;;;3.70;;
75550;SDS011;65071;53.082;18.218;2023-04-16T12:35:36;10.60;;;6.80;;
75550;SDS011;65071;53.082;18.218;2023-04-16T12:40:28;11.40;;;4.90;;
75550;SDS011;65071;53.082;18.218;2023-04-16T12:42:55;7.70;;;4.10;;
75550;SDS011;65071;53.082;18.218;2023-04-16T12:45:21;10.50;;;5.40;;
75550;SDS011;65071;53.082;18.218;2023-04-16T12:47:48;11.70;;;5.80;;
75550;SDS011;65071;53.082;18.218;2023-04-16T12:50:16;12.50;;;6.70;;
75550;SDS011;65071;53.082;18.218;2023-04-16T12:52:43;13.20;;;7.20;;
75550;SDS011;65071;53.082;18.218;2023-04-16T12:55:09;10.20;;;4.60;;
75550;SDS011;65071;53.082;18.218;2023-04-16T12:57:37;13.40;;;7.30;;
75550;SDS011;65071;53.082;18.218;2023-04-16T13:00:03;14.20;;;6.90;;
75550;SDS011;65071;53.082;18.218;2023-04-16T13:02:31;16.70;;;9.40;;
75550;SDS011;65071;53.082;18.218;2023-04-16T13:04:58;19.00;;;10.70;;
75550;SDS011;65071;53.082;18.218;2023-04-16T13:07:25;14.40;;;7.90;;
75550;SDS011;65071;53.082;18.218;2023-04-16T13:09:52;9.90;;;5.40;;
75550;SDS011;65071;53.082;18.218;2023-04-16T13:12:19;12.20;;;7.00;;
75550;SDS011;65071;53.082;18.218;2023-04-16T13:14:45;14.80;;;7.40;;
75550;SDS011;65071;53.082;18.218;2023-04-16T13:17:12;14.30;;;7.70;;
75550;SDS011;65071;53.082;18.218;2023-04-16T13:19:38;12.40;;;6.40;;
75550;SDS011;65071;53.082;18.218;2023-04-16T13:22:05;12.80;;;6.70;;
75550;SDS011;65071;53.082;18.218;2023-04-16T13:24:32;14.60;;;7.70;;
75550;SDS011;65071;53.082;18.218;2023-04-16T13:26:59;12.00;;;7.40;;
75550;SDS011;65071;53.082;18.218;2023-04-16T13:29:26;14.70;;;8.50;;
75550;SDS011;65071;53.082;18.218;2023-04-16T13:31:53;15.00;;;8.10;;
75550;SDS011;65071;53.082;18.218;2023-04-16T13:34:19;12.90;;;6.60;;
75550;SDS011;65071;53.082;18.218;2023-04-16T13:36:46;17.50;;;8.80;;
75550;SDS011;65071;53.082;18.218;2023-04-16T13:39:13;17.20;;;10.20;;
75550;SDS011;65071;53.082;18.218;2023-04-16T13:41:40;15.80;;;8.90;;
75550;SDS011;65071;53.082;18.218;2023-04-16T13:44:07;19.90;;;9.80;;
75550;SDS011;65071;53.082;18.218;2023-04-16T13:46:33;18.10;;;9.00;;
75550;SDS011;65071;53.082;18.218;2023-04-16T13:49:00;17.10;;;8.40;;
75550;SDS011;65071;53.082;18.218;2023-04-16T13:51:26;13.70;;;7.90;;
75550;SDS011;65071;53.082;18.218;2023-04-16T13:53:53;8.50;;;4.30;;
75550;SDS011;65071;53.082;18.218;2023-04-16T13:56:23;13.20;;;7.10;;
75550;SDS011;65071;53.082;18.218;2023-04-16T13:58:50;11.80;;;7.00;;
75550;SDS011;65071;53.082;18.218;2023-04-16T14:01:17;13.40;;;7.10;;
75550;SDS011;65071;53.082;18.218;2023-04-16T14:03:44;11.80;;;5.90;;
75550;SDS011;65071;53.082;18.218;2023-04-16T14:06:11;14.90;;;8.20;;
75550;SDS011;65071;53.082;18.218;2023-04-16T14:08:38;12.70;;;7.80;;
75550;SDS011;65071;53.082;18.218;2023-04-16T14:11:04;14.90;;;8.20;;
75550;SDS011;65071;53.082;18.218;2023-04-16T14:13:31;9.70;;;6.10;;
75550;SDS011;65071;53.082;18.218;2023-04-16T14:15:58;9.60;;;6.20;;
75550;SDS011;65071;53.082;18.218;2023-04-16T14:18:24;9.40;;;4.80;;
75550;SDS011;65071;53.082;18.218;2023-04-16T14:20:51;10.60;;;5.90;;
75550;SDS011;65071;53.082;18.218;2023-04-16T14:23:17;16.50;;;8.00;;
75550;SDS011;65071;53.082;18.218;2023-04-16T14:25:44;12.90;;;8.00;;
75550;SDS011;65071;53.082;18.218;2023-04-16T14:28:10;12.90;;;7.60;;
75550;SDS011;65071;53.082;18.218;2023-04-16T14:30:37;12.00;;;7.50;;
75550;SDS011;65071;53.082;18.218;2023-04-16T14:33:04;14.60;;;7.20;;
75550;SDS011;65071;53.082;18.218;2023-04-16T14:35:31;10.60;;;6.40;;
75550;SDS011;65071;53.082;18.218;2023-04-16T14:37:59;8.80;;;6.00;;
75550;SDS011;65071;53.082;18.218;2023-04-16T14:40:26;11.20;;;6.30;;
75550;SDS011;65071;53.082;18.218;2023-04-16T14:42:53;12.80;;;7.40;;
75550;SDS011;65071;53.082;18.218;2023-04-16T14:45:19;9.10;;;6.00;;
75550;SDS011;65071;53.082;18.218;2023-04-16T14:47:46;5.50;;;3.00;;
75550;SDS011;65071;53.082;18.218;2023-04-16T14:50:13;7.50;;;4.40;;
75550;SDS011;65071;53.082;18.218;2023-04-16T14:52:40;7.50;;;3.60;;
75550;SDS011;65071;53.082;18.218;2023-04-16T14:55:07;5.80;;;4.30;;